sensor_id;sensor_type;location;lat;lon;timestamp;pressure;altitude;pressure_sealevel;temperature;humidity
75008;BME280;63554;48.940;12.050;2024-01-16T00:02:25;96495.44;;;-2.45;93.16
75008;BME280;63554;48.940;12.050;2024-01-16T00:06:29;96506.34;;;-2.48;92.98
75008;BME280;63554;48.940;12.050;2024-01-16T00:10:32;96506.03;;;-2.45;92.24
75008;BME280;63554;48.940;12.050;2024-01-16T00:14:35;96522.66;;;-2.35;91.86
75008;BME280;63554;48.940;12.050;2024-01-16T00:18:39;96518.16;;;-2.34;91.39
75008;BME280;63554;48.940;12.050;2024-01-16T00:22:43;96538.72;;;-2.28;91.38
75008;BME280;63554;48.940;12.050;2024-01-16T00:26:45;96526.28;;;-2.28;90.79
75008;BME280;63554;48.940;12.050;2024-01-16T00:30:48;96543.72;;;-2.25;90.79
75008;BME280;63554;48.940;12.050;2024-01-16T00:34:51;96544.53;;;-2.25;90.04
75008;BME280;63554;48.940;12.050;2024-01-16T00:38:55;96560.09;;;-2.22;89.40
75008;BME280;63554;48.940;12.050;2024-01-16T00:42:58;96564.06;;;-2.26;89.55
75008;BME280;63554;48.940;12.050;2024-01-16T00:47:01;96573.34;;;-2.22;88.91
75008;BME280;63554;48.940;12.050;2024-01-16T00:51:04;96574.34;;;-2.23;88.08
75008;BME280;63554;48.940;12.050;2024-01-16T00:55:08;96572.38;;;-2.21;88.41
75008;BME280;63554;48.940;12.050;2024-01-16T00:59:11;96583.94;;;-2.22;87.63
75008;BME280;63554;48.940;12.050;2024-01-16T01:03:14;96588.78;;;-2.17;86.63
75008;BME280;63554;48.940;12.050;2024-01-16T01:07:17;96586.16;;;-2.17;86.54
75008;BME280;63554;48.940;12.050;2024-01-16T01:11:21;96594.91;;;-2.16;86.37
75008;BME280;63554;48.940;12.050;2024-01-16T01:15:23;96597.25;;;-2.13;86.34
75008;BME280;63554;48.940;12.050;2024-01-16T01:19:26;96603.53;;;-2.14;86.34
75008;BME280;63554;48.940;12.050;2024-01-16T01:23:29;96608.03;;;-2.15;86.28
75008;BME280;63554;48.940;12.050;2024-01-16T01:27:33;96608.31;;;-2.18;87.40
75008;BME280;63554;48.940;12.050;2024-01-16T01:31:36;96614.47;;;-2.17;87.67
75008;BME280;63554;48.940;12.050;2024-01-16T01:35:39;96620.09;;;-2.21;87.08
75008;BME280;63554;48.940;12.050;2024-01-16T01:39:41;96622.72;;;-2.21;87.37
75008;BME280;63554;48.940;12.050;2024-01-16T01:43:45;96637.13;;;-2.23;88.20
75008;BME280;63554;48.940;12.050;2024-01-16T01:47:49;96645.25;;;-2.25;87.43
75008;BME280;63554;48.940;12.050;2024-01-16T01:51:52;96638.59;;;-2.29;87.64
75008;BME280;63554;48.940;12.050;2024-01-16T01:55:55;96641.53;;;-2.32;87.91
75008;BME280;63554;48.940;12.050;2024-01-16T01:59:59;96647.66;;;-2.31;88.01
75008;BME280;63554;48.940;12.050;2024-01-16T02:04:04;96638.22;;;-2.34;88.00
75008;BME280;63554;48.940;12.050;2024-01-16T02:08:07;96642.31;;;-2.40;88.58
75008;BME280;63554;48.940;12.050;2024-01-16T02:12:10;96662.69;;;-2.40;88.32
75008;BME280;63554;48.940;12.050;2024-01-16T02:16:21;96668.66;;;-2.38;88.17
75008;BME280;63554;48.940;12.050;2024-01-16T02:20:24;96657.69;;;-2.43;88.44
75008;BME280;63554;48.940;12.050;2024-01-16T02:24:28;96654.38;;;-2.45;88.74
75008;BME280;63554;48.940;12.050;2024-01-16T02:28:31;96664.81;;;-2.44;88.67
75008;BME280;63554;48.940;12.050;2024-01-16T02:32:34;96670.25;;;-2.45;87.96
75008;BME280;63554;48.940;12.050;2024-01-16T02:36:37;96665.81;;;-2.45;87.99
75008;BME280;63554;48.940;12.050;2024-01-16T02:40:41;96663.47;;;-2.48;88.13
75008;BME280;63554;48.940;12.050;2024-01-16T02:44:44;96672.41;;;-2.49;88.64
75008;BME280;63554;48.940;12.050;2024-01-16T02:48:47;96676.72;;;-2.48;88.96
75008;BME280;63554;48.940;12.050;2024-01-16T02:52:50;96684.66;;;-2.48;88.63
75008;BME280;63554;48.940;12.050;2024-01-16T02:56:54;96678.84;;;-2.51;87.89
75008;BME280;63554;48.940;12.050;2024-01-16T03:00:57;96695.59;;;-2.51;87.93
75008;BME280;63554;48.940;12.050;2024-01-16T03:05:00;96698.22;;;-2.51;87.51
75008;BME280;63554;48.940;12.050;2024-01-16T03:09:02;96701.56;;;-2.49;87.55
75008;BME280;63554;48.940;12.050;2024-01-16T03:13:07;96706.19;;;-2.51;87.67
75008;BME280;63554;48.940;12.050;2024-01-16T03:17:09;96701.84;;;-2.52;87.38
75008;BME280;63554;48.940;12.050;2024-01-16T03:21:13;96701.84;;;-2.52;87.46
75008;BME280;63554;48.940;12.050;2024-01-16T03:25:16;96717.75;;;-2.52;86.93
75008;BME280;63554;48.940;12.050;2024-01-16T03:29:20;96718.03;;;-2.55;87.23
75008;BME280;63554;48.940;12.050;2024-01-16T03:33:23;96724.81;;;-2.61;87.56
75008;BME280;63554;48.940;12.050;2024-01-16T03:37:26;96717.84;;;-2.62;87.13
75008;BME280;63554;48.940;12.050;2024-01-16T03:41:29;96721.16;;;-2.60;87.89
75008;BME280;63554;48.940;12.050;2024-01-16T03:45:33;96720.78;;;-2.65;87.54
75008;BME280;63554;48.940;12.050;2024-01-16T03:49:36;96720.94;;;-2.66;87.00
75008;BME280;63554;48.940;12.050;2024-01-16T03:53:39;96723.59;;;-2.66;87.28
75008;BME280;63554;48.940;12.050;2024-01-16T03:57:41;96722.38;;;-2.72;88.17
75008;BME280;63554;48.940;12.050;2024-01-16T04:01:46;96720.03;;;-2.75;87.50
75008;BME280;63554;48.940;12.050;2024-01-16T04:05:50;96725.94;;;-2.81;87.95
75008;BME280;63554;48.940;12.050;2024-01-16T04:09:53;96724.56;;;-2.85;87.93
75008;BME280;63554;48.940;12.050;2024-01-16T04:13:56;96740.19;;;-2.82;87.56
75008;BME280;63554;48.940;12.050;2024-01-16T04:18:00;96743.94;;;-2.85;88.09
75008;BME280;63554;48.940;12.050;2024-01-16T04:22:03;96740.59;;;-2.87;87.90
75008;BME280;63554;48.940;12.050;2024-01-16T04:26:06;96744.41;;;-2.89;88.30
75008;BME280;63554;48.940;12.050;2024-01-16T04:30:10;96731.63;;;-2.94;87.90
75008;BME280;63554;48.940;12.050;2024-01-16T04:34:14;96742.22;;;-2.94;87.69
75008;BME280;63554;48.940;12.050;2024-01-16T04:38:17;96749.63;;;-2.97;87.77
75008;BME280;63554;48.940;12.050;2024-01-16T04:42:20;96751.94;;;-2.94;87.90
75008;BME280;63554;48.940;12.050;2024-01-16T04:46:23;96752.09;;;-2.96;87.83
75008;BME280;63554;48.940;12.050;2024-01-16T04:50:27;96748.75;;;-2.98;87.69
75008;BME280;63554;48.940;12.050;2024-01-16T04:54:33;96748.53;;;-3.05;87.65
75008;BME280;63554;48.940;12.050;2024-01-16T04:58:36;96755.19;;;-3.01;86.95
75008;BME280;63554;48.940;12.050;2024-01-16T05:02:38;96753.91;;;-2.96;87.22
75008;BME280;63554;48.940;12.050;2024-01-16T05:06:43;96753.56;;;-3.02;87.14
75008;BME280;63554;48.940;12.050;2024-01-16T05:10:46;96755.72;;;-2.97;87.19
75008;BME280;63554;48.940;12.050;2024-01-16T05:14:48;96764.13;;;-3.02;86.93
75008;BME280;63554;48.940;12.050;2024-01-16T05:18:51;96760.28;;;-3.07;86.51
75008;BME280;63554;48.940;12.050;2024-01-16T05:22:55;96767.81;;;-3.12;86.38
75008;BME280;63554;48.940;12.050;2024-01-16T05:26:58;96773.94;;;-3.12;86.55
75008;BME280;63554;48.940;12.050;2024-01-16T05:31:01;96778.25;;;-3.11;85.88
75008;BME280;63554;48.940;12.050;2024-01-16T05:35:04;96781.59;;;-3.09;86.51
75008;BME280;63554;48.940;12.050;2024-01-16T05:39:09;96779.06;;;-3.10;85.82
75008;BME280;63554;48.940;12.050;2024-01-16T05:43:13;96778.72;;;-3.15;85.75
75008;BME280;63554;48.940;12.050;2024-01-16T05:47:16;96785.38;;;-3.11;86.12
75008;BME280;63554;48.940;12.050;2024-01-16T05:51:19;96766.59;;;-3.18;86.03
75008;BME280;63554;48.940;12.050;2024-01-16T05:55:23;96772.69;;;-3.18;85.85
75008;BME280;63554;48.940;12.050;2024-01-16T05:59:26;96781.09;;;-3.22;85.53
75008;BME280;63554;48.940;12.050;2024-01-16T06:03:28;96787.53;;;-3.25;85.61
75008;BME280;63554;48.940;12.050;2024-01-16T06:07:31;96786.28;;;-3.30;85.59
75008;BME280;63554;48.940;12.050;2024-01-16T06:11:35;96788.84;;;-3.39;85.49
75008;BME280;63554;48.940;12.050;2024-01-16T06:15:39;96792.22;;;-3.46;84.43
75008;BME280;63554;48.940;12.050;2024-01-16T06:19:42;96813.78;;;-3.51;83.70
75008;BME280;63554;48.940;12.050;2024-01-16T06:23:45;96802.28;;;-3.60;83.12
75008;BME280;63554;48.940;12.050;2024-01-16T06:27:49;96816.34;;;-3.59;83.38
75008;BME280;63554;48.940;12.050;2024-01-16T06:31:52;96802.19;;;-3.68;84.03
75008;BME280;63554;48.940;12.050;2024-01-16T06:35:55;96800.94;;;-3.73;84.22
75008;BME280;63554;48.940;12.050;2024-01-16T06:39:57;96800.69;;;-3.80;85.07
75008;BME280;63554;48.940;12.050;2024-01-16T06:44:02;96791.81;;;-3.89;85.42
75008;BME280;63554;48.940;12.050;2024-01-16T06:48:04;96785.03;;;-4.01;84.57
75008;BME280;63554;48.940;12.050;2024-01-16T06:52:08;96795.31;;;-4.08;84.70
75008;BME280;63554;48.940;12.050;2024-01-16T06:56:11;96809.53;;;-4.09;83.96
75008;BME280;63554;48.940;12.050;2024-01-16T07:00:16;96815.50;;;-4.17;83.47
75008;BME280;63554;48.940;12.050;2024-01-16T07:04:19;96819.28;;;-4.19;83.38
75008;BME280;63554;48.940;12.050;2024-01-16T07:08:22;96813.84;;;-4.18;83.05
75008;BME280;63554;48.940;12.050;2024-01-16T07:12:24;96814.69;;;-4.17;83.10
75008;BME280;63554;48.940;12.050;2024-01-16T07:16:29;96807.31;;;-4.23;82.86
75008;BME280;63554;48.940;12.050;2024-01-16T07:20:31;96808.28;;;-4.34;82.73
75008;BME280;63554;48.940;12.050;2024-01-16T07:24:34;96810.25;;;-4.36;82.60
75008;BME280;63554;48.940;12.050;2024-01-16T07:28:37;96808.88;;;-4.40;83.08
75008;BME280;63554;48.940;12.050;2024-01-16T07:32:41;96794.53;;;-4.47;82.52
75008;BME280;63554;48.940;12.050;2024-01-16T07:36:44;96804.72;;;-4.52;83.17
75008;BME280;63554;48.940;12.050;2024-01-16T07:40:46;96804.16;;;-4.56;82.92
75008;BME280;63554;48.940;12.050;2024-01-16T07:44:49;96809.13;;;-4.53;83.28
75008;BME280;63554;48.940;12.050;2024-01-16T07:48:54;96815.25;;;-4.52;82.95
75008;BME280;63554;48.940;12.050;2024-01-16T07:52:57;96815.78;;;-4.49;82.62
75008;BME280;63554;48.940;12.050;2024-01-16T07:57:00;96823.88;;;-4.41;82.82
75008;BME280;63554;48.940;12.050;2024-01-16T08:01:03;96816.22;;;-4.34;83.00
75008;BME280;63554;48.940;12.050;2024-01-16T08:05:07;96815.38;;;-2.39;100.00
75008;BME280;63554;48.940;12.050;2024-01-16T08:09:10;96805.84;;;-2.68;87.01
75008;BME280;63554;48.940;12.050;2024-01-16T08:13:14;96818.41;;;-2.52;81.38
75008;BME280;63554;48.940;12.050;2024-01-16T08:17:16;96819.41;;;-3.54;81.13
75008;BME280;63554;48.940;12.050;2024-01-16T08:21:21;96831.75;;;-3.92;82.35
75008;BME280;63554;48.940;12.050;2024-01-16T08:25:23;96821.59;;;-3.97;82.39
75008;BME280;63554;48.940;12.050;2024-01-16T08:29:26;96817.16;;;-4.06;82.47
75008;BME280;63554;48.940;12.050;2024-01-16T08:33:29;96824.13;;;-4.05;82.18
75008;BME280;63554;48.940;12.050;2024-01-16T08:37:45;96823.56;;;-4.08;82.24
75008;BME280;63554;48.940;12.050;2024-01-16T08:41:47;96809.09;;;-4.14;81.37
75008;BME280;63554;48.940;12.050;2024-01-16T08:45:50;96828.84;;;-4.08;81.70
75008;BME280;63554;48.940;12.050;2024-01-16T08:49:53;96825.50;;;-4.01;81.45
75008;BME280;63554;48.940;12.050;2024-01-16T08:53:57;96822.84;;;-4.01;81.45
75008;BME280;63554;48.940;12.050;2024-01-16T08:58:00;96823.97;;;-4.03;81.09
75008;BME280;63554;48.940;12.050;2024-01-16T09:02:03;96819.75;;;-3.86;80.53
75008;BME280;63554;48.940;12.050;2024-01-16T09:06:06;96813.00;;;-4.08;81.67
75008;BME280;63554;48.940;12.050;2024-01-16T09:10:11;96819.94;;;-3.98;81.38
75008;BME280;63554;48.940;12.050;2024-01-16T09:14:14;96808.63;;;-3.80;80.63
75008;BME280;63554;48.940;12.050;2024-01-16T09:18:17;96808.63;;;-3.80;79.89
75008;BME280;63554;48.940;12.050;2024-01-16T09:22:20;96818.59;;;-3.64;80.21
75008;BME280;63554;48.940;12.050;2024-01-16T09:26:24;96816.19;;;-3.58;80.48
75008;BME280;63554;48.940;12.050;2024-01-16T09:30:27;96829.28;;;-3.56;79.83
75008;BME280;63554;48.940;12.050;2024-01-16T09:34:29;96835.09;;;-3.43;78.47
75008;BME280;63554;48.940;12.050;2024-01-16T09:38:32;96811.69;;;-3.47;80.47
75008;BME280;63554;48.940;12.050;2024-01-16T09:42:36;96817.44;;;-3.24;78.67
75008;BME280;63554;48.940;12.050;2024-01-16T09:46:39;96821.66;;;-3.31;78.30
75008;BME280;63554;48.940;12.050;2024-01-16T09:50:48;96812.94;;;-3.14;78.75
75008;BME280;63554;48.940;12.050;2024-01-16T09:54:50;96819.06;;;-2.86;77.21
75008;BME280;63554;48.940;12.050;2024-01-16T09:58:57;96816.09;;;-2.83;75.77
75008;BME280;63554;48.940;12.050;2024-01-16T10:03:01;96816.28;;;-2.84;76.73
75008;BME280;63554;48.940;12.050;2024-01-16T10:07:07;96802.78;;;-2.91;76.60
75008;BME280;63554;48.940;12.050;2024-01-16T10:11:10;96801.22;;;-2.66;75.70
75008;BME280;63554;48.940;12.050;2024-01-16T10:15:15;96794.50;;;-2.60;75.08
75008;BME280;63554;48.940;12.050;2024-01-16T10:19:18;96791.16;;;-2.62;74.29
75008;BME280;63554;48.940;12.050;2024-01-16T10:23:28;96787.69;;;-2.45;75.39
75008;BME280;63554;48.940;12.050;2024-01-16T10:27:31;96788.81;;;-2.29;73.57
75008;BME280;63554;48.940;12.050;2024-01-16T10:31:35;96800.38;;;-2.30;73.64
75008;BME280;63554;48.940;12.050;2024-01-16T10:35:40;96805.97;;;-2.33;74.23
75008;BME280;63554;48.940;12.050;2024-01-16T10:39:49;96802.19;;;-2.31;74.11
75008;BME280;63554;48.940;12.050;2024-01-16T10:44:03;96811.53;;;-2.01;73.57
75008;BME280;63554;48.940;12.050;2024-01-16T10:48:08;96814.50;;;-2.04;73.74
75008;BME280;63554;48.940;12.050;2024-01-16T10:52:11;96817.84;;;-2.20;72.69
75008;BME280;63554;48.940;12.050;2024-01-16T10:56:17;96813.91;;;-2.33;72.53
75008;BME280;63554;48.940;12.050;2024-01-16T11:00:21;96810.59;;;-2.17;72.66
75008;BME280;63554;48.940;12.050;2024-01-16T11:04:27;96820.84;;;-1.96;71.96
75008;BME280;63554;48.940;12.050;2024-01-16T11:08:31;96819.25;;;-1.63;70.73
75008;BME280;63554;48.940;12.050;2024-01-16T11:12:35;96810.94;;;-1.34;70.00
75008;BME280;63554;48.940;12.050;2024-01-16T11:16:40;96817.06;;;-1.94;70.32
75008;BME280;63554;48.940;12.050;2024-01-16T11:20:46;96817.38;;;-1.71;71.22
75008;BME280;63554;48.940;12.050;2024-01-16T11:25:07;96824.41;;;-1.88;70.67
75008;BME280;63554;48.940;12.050;2024-01-16T11:29:36;96798.91;;;-2.07;71.79
75008;BME280;63554;48.940;12.050;2024-01-16T11:33:42;96793.81;;;-2.00;71.56
75008;BME280;63554;48.940;12.050;2024-01-16T11:37:47;96795.13;;;-1.78;71.38
75008;BME280;63554;48.940;12.050;2024-01-16T11:41:54;96788.09;;;-1.87;71.63
75008;BME280;63554;48.940;12.050;2024-01-16T11:45:57;96787.38;;;-1.97;70.80
75008;BME280;63554;48.940;12.050;2024-01-16T11:50:09;96791.28;;;-1.49;69.87
75008;BME280;63554;48.940;12.050;2024-01-16T11:54:14;96768.72;;;-1.19;68.65
75008;BME280;63554;48.940;12.050;2024-01-16T11:58:33;96764.22;;;-1.27;68.65
75008;BME280;63554;48.940;12.050;2024-01-16T12:02:51;96754.75;;;-1.29;70.20
75008;BME280;63554;48.940;12.050;2024-01-16T12:06:57;96750.31;;;-1.12;68.74
75008;BME280;63554;48.940;12.050;2024-01-16T12:11:03;96737.19;;;-1.14;68.04
75008;BME280;63554;48.940;12.050;2024-01-16T12:15:13;96734.88;;;-1.25;68.11
75008;BME280;63554;48.940;12.050;2024-01-16T12:19:16;96713.66;;;-1.09;69.00
75008;BME280;63554;48.940;12.050;2024-01-16T12:23:20;96720.31;;;-0.96;68.29
75008;BME280;63554;48.940;12.050;2024-01-16T12:27:26;96723.53;;;-1.35;68.09
75008;BME280;63554;48.940;12.050;2024-01-16T12:31:29;96710.97;;;-1.25;69.25
75008;BME280;63554;48.940;12.050;2024-01-16T12:35:32;96699.06;;;-1.13;68.79
75008;BME280;63554;48.940;12.050;2024-01-16T12:39:36;96701.56;;;-0.87;68.41
75008;BME280;63554;48.940;12.050;2024-01-16T12:43:41;96702.59;;;-0.88;67.76
75008;BME280;63554;48.940;12.050;2024-01-16T12:47:50;96699.94;;;-0.63;67.86
75008;BME280;63554;48.940;12.050;2024-01-16T12:52:19;96694.81;;;-0.56;66.96
75008;BME280;63554;48.940;12.050;2024-01-16T12:56:23;96681.31;;;-0.22;66.57
75008;BME280;63554;48.940;12.050;2024-01-16T13:00:40;96667.59;;;0.14;65.71
75008;BME280;63554;48.940;12.050;2024-01-16T13:04:43;96675.06;;;0.18;64.62
75008;BME280;63554;48.940;12.050;2024-01-16T13:09:04;96669.44;;;0.05;65.02
75008;BME280;63554;48.940;12.050;2024-01-16T13:13:11;96652.50;;;-0.02;64.68
75008;BME280;63554;48.940;12.050;2024-01-16T13:17:15;96643.03;;;-0.05;65.02
75008;BME280;63554;48.940;12.050;2024-01-16T13:21:23;96646.56;;;-0.21;66.71
75008;BME280;63554;48.940;12.050;2024-01-16T13:25:29;96665.69;;;-0.25;66.25
75008;BME280;63554;48.940;12.050;2024-01-16T13:29:32;96656.22;;;-0.36;66.44
75008;BME280;63554;48.940;12.050;2024-01-16T13:33:38;96642.47;;;-0.56;66.37
75008;BME280;63554;48.940;12.050;2024-01-16T13:37:41;96648.78;;;-0.57;67.10
75008;BME280;63554;48.940;12.050;2024-01-16T13:41:53;96647.47;;;-0.53;67.78
75008;BME280;63554;48.940;12.050;2024-01-16T13:45:56;96648.47;;;-0.62;67.42
75008;BME280;63554;48.940;12.050;2024-01-16T13:50:00;96643.00;;;-0.61;68.14
75008;BME280;63554;48.940;12.050;2024-01-16T13:54:09;96642.31;;;-0.54;68.42
75008;BME280;63554;48.940;12.050;2024-01-16T13:58:11;96647.47;;;-0.69;68.38
75008;BME280;63554;48.940;12.050;2024-01-16T14:02:14;96640.00;;;-0.74;69.62
75008;BME280;63554;48.940;12.050;2024-01-16T14:06:18;96646.28;;;-0.67;69.16
75008;BME280;63554;48.940;12.050;2024-01-16T14:10:41;96634.50;;;-0.81;69.50
75008;BME280;63554;48.940;12.050;2024-01-16T14:14:44;96628.06;;;-0.86;68.91
75008;BME280;63554;48.940;12.050;2024-01-16T14:18:49;96630.22;;;-0.90;69.49
75008;BME280;63554;48.940;12.050;2024-01-16T14:22:53;96632.00;;;-0.90;69.96
75008;BME280;63554;48.940;12.050;2024-01-16T14:26:59;96630.88;;;-0.88;70.71
75008;BME280;63554;48.940;12.050;2024-01-16T14:31:02;96620.41;;;-0.89;71.01
75008;BME280;63554;48.940;12.050;2024-01-16T14:35:11;96616.59;;;-0.95;70.42
75008;BME280;63554;48.940;12.050;2024-01-16T14:39:15;96621.56;;;-1.00;71.54
75008;BME280;63554;48.940;12.050;2024-01-16T14:43:28;96634.00;;;-1.01;72.28
75008;BME280;63554;48.940;12.050;2024-01-16T14:47:35;96642.47;;;-1.05;71.44
75008;BME280;63554;48.940;12.050;2024-01-16T14:52:01;96639.97;;;-1.23;71.82
75008;BME280;63554;48.940;12.050;2024-01-16T14:56:05;96629.00;;;-1.36;73.07
75008;BME280;63554;48.940;12.050;2024-01-16T15:00:09;96626.00;;;-1.42;72.96
75008;BME280;63554;48.940;12.050;2024-01-16T15:04:29;96612.06;;;-1.44;74.75
75008;BME280;63554;48.940;12.050;2024-01-16T15:08:42;96619.03;;;-1.43;74.75
75008;BME280;63554;48.940;12.050;2024-01-16T15:12:47;96629.00;;;-1.36;74.29
75008;BME280;63554;48.940;12.050;2024-01-16T15:16:50;96619.03;;;-1.34;74.41
75008;BME280;63554;48.940;12.050;2024-01-16T15:20:53;96609.06;;;-1.49;74.74
75008;BME280;63554;48.940;12.050;2024-01-16T15:24:57;96614.69;;;-1.60;75.95
75008;BME280;63554;48.940;12.050;2024-01-16T15:29:01;96628.09;;;-1.62;76.77
75008;BME280;63554;48.940;12.050;2024-01-16T15:33:04;96625.63;;;-1.55;77.27
75008;BME280;63554;48.940;12.050;2024-01-16T15:37:07;96610.19;;;-1.60;76.67
75008;BME280;63554;48.940;12.050;2024-01-16T15:41:09;96603.72;;;-1.65;76.41
75008;BME280;63554;48.940;12.050;2024-01-16T15:45:15;96620.13;;;-1.70;77.15
75008;BME280;63554;48.940;12.050;2024-01-16T15:49:18;96614.13;;;-1.80;77.71
75008;BME280;63554;48.940;12.050;2024-01-16T15:53:20;96605.44;;;-1.90;78.05
75008;BME280;63554;48.940;12.050;2024-01-16T15:57:23;96617.47;;;-2.12;79.57
75008;BME280;63554;48.940;12.050;2024-01-16T16:01:27;96619.47;;;-2.06;79.35
75008;BME280;63554;48.940;12.050;2024-01-16T16:05:31;96622.78;;;-2.04;79.49
75008;BME280;63554;48.940;12.050;2024-01-16T16:09:34;96625.97;;;-2.01;79.57
75008;BME280;63554;48.940;12.050;2024-01-16T16:13:37;96622.84;;;-1.96;80.17
75008;BME280;63554;48.940;12.050;2024-01-16T16:17:41;96624.50;;;-1.95;80.21
75008;BME280;63554;48.940;12.050;2024-01-16T16:21:44;96620.34;;;-1.97;80.85
75008;BME280;63554;48.940;12.050;2024-01-16T16:25:50;96624.81;;;-1.98;81.33
75008;BME280;63554;48.940;12.050;2024-01-16T16:29:53;96628.97;;;-1.95;80.82
75008;BME280;63554;48.940;12.050;2024-01-16T16:33:58;96626.63;;;-1.99;81.29
75008;BME280;63554;48.940;12.050;2024-01-16T16:38:02;96639.06;;;-1.99;82.16
75008;BME280;63554;48.940;12.050;2024-01-16T16:42:05;96627.44;;;-2.06;82.04
75008;BME280;63554;48.940;12.050;2024-01-16T16:46:12;96627.75;;;-2.09;81.97
75008;BME280;63554;48.940;12.050;2024-01-16T16:50:16;96633.59;;;-2.06;82.52
75008;BME280;63554;48.940;12.050;2024-01-16T16:54:19;96633.22;;;-2.11;82.11
75008;BME280;63554;48.940;12.050;2024-01-16T16:58:22;96626.41;;;-2.13;81.86
75008;BME280;63554;48.940;12.050;2024-01-16T17:02:25;96621.56;;;-2.18;82.00
75008;BME280;63554;48.940;12.050;2024-01-16T17:06:29;96628.84;;;-2.20;81.64
75008;BME280;63554;48.940;12.050;2024-01-16T17:10:31;96628.66;;;-2.27;82.05
75008;BME280;63554;48.940;12.050;2024-01-16T17:14:34;96637.91;;;-2.31;82.71
75008;BME280;63554;48.940;12.050;2024-01-16T17:18:37;96650.84;;;-2.28;84.52
75008;BME280;63554;48.940;12.050;2024-01-16T17:22:43;96650.16;;;-2.30;84.57
75008;BME280;63554;48.940;12.050;2024-01-16T17:26:46;96640.19;;;-2.36;85.26
75008;BME280;63554;48.940;12.050;2024-01-16T17:30:49;96639.53;;;-2.38;85.68
75008;BME280;63554;48.940;12.050;2024-01-16T17:34:52;96640.81;;;-2.42;86.56
75008;BME280;63554;48.940;12.050;2024-01-16T17:38:56;96645.03;;;-1.54;100.00
75008;BME280;63554;48.940;12.050;2024-01-16T17:43:02;96647.59;;;-1.12;100.00
75008;BME280;63554;48.940;12.050;2024-01-16T17:47:05;96647.16;;;-0.74;94.47
75008;BME280;63554;48.940;12.050;2024-01-16T17:51:08;96649.44;;;-0.47;88.73
75008;BME280;63554;48.940;12.050;2024-01-16T17:55:12;96638.16;;;-0.41;86.10
75008;BME280;63554;48.940;12.050;2024-01-16T17:59:14;96650.97;;;-0.61;80.25
75008;BME280;63554;48.940;12.050;2024-01-16T18:03:17;96635.47;;;-1.31;79.48
75008;BME280;63554;48.940;12.050;2024-01-16T18:07:41;96624.22;;;-1.84;81.84
75008;BME280;63554;48.940;12.050;2024-01-16T18:11:55;96626.25;;;-2.12;83.39
75008;BME280;63554;48.940;12.050;2024-01-16T18:15:58;96622.94;;;-2.40;83.23
75008;BME280;63554;48.940;12.050;2024-01-16T18:20:07;96619.88;;;-2.53;85.53
75008;BME280;63554;48.940;12.050;2024-01-16T18:24:11;96625.72;;;-2.76;87.21
75008;BME280;63554;48.940;12.050;2024-01-16T18:28:15;96626.63;;;-2.85;88.11
75008;BME280;63554;48.940;12.050;2024-01-16T18:32:18;96626.63;;;-2.85;88.42
75008;BME280;63554;48.940;12.050;2024-01-16T18:36:21;96625.81;;;-2.86;88.95
75008;BME280;63554;48.940;12.050;2024-01-16T18:40:24;96612.19;;;-2.91;89.17
75008;BME280;63554;48.940;12.050;2024-01-16T18:44:29;96608.03;;;-2.93;89.09
75008;BME280;63554;48.940;12.050;2024-01-16T18:48:32;96619.06;;;-2.98;89.33
75008;BME280;63554;48.940;12.050;2024-01-16T18:52:36;96607.59;;;-3.07;89.44
75008;BME280;63554;48.940;12.050;2024-01-16T18:56:41;96609.09;;;-3.04;89.08
75008;BME280;63554;48.940;12.050;2024-01-16T19:00:46;96610.38;;;-3.08;88.63
75008;BME280;63554;48.940;12.050;2024-01-16T19:04:52;96593.09;;;-3.21;89.13
75008;BME280;63554;48.940;12.050;2024-01-16T19:08:54;96599.16;;;-3.28;89.06
75008;BME280;63554;48.940;12.050;2024-01-16T19:12:57;96604.38;;;-3.36;88.72
75008;BME280;63554;48.940;12.050;2024-01-16T19:17:02;96590.63;;;-3.58;86.63
75008;BME280;63554;48.940;12.050;2024-01-16T19:21:06;96601.47;;;-4.07;87.96
75008;BME280;63554;48.940;12.050;2024-01-16T19:25:11;96594.84;;;-4.11;88.08
75008;BME280;63554;48.940;12.050;2024-01-16T19:29:17;96592.91;;;-4.46;88.08
75008;BME280;63554;48.940;12.050;2024-01-16T19:33:22;96584.34;;;-4.58;89.98
75008;BME280;63554;48.940;12.050;2024-01-16T19:37:25;96581.66;;;-4.48;89.52
75008;BME280;63554;48.940;12.050;2024-01-16T19:41:30;96585.25;;;-4.49;89.87
75008;BME280;63554;48.940;12.050;2024-01-16T19:45:33;96577.66;;;-4.52;90.33
75008;BME280;63554;48.940;12.050;2024-01-16T19:49:38;96568.06;;;-4.53;90.60
75008;BME280;63554;48.940;12.050;2024-01-16T19:53:40;96571.97;;;-4.58;89.64
75008;BME280;63554;48.940;12.050;2024-01-16T19:57:43;96563.53;;;-4.71;89.70
75008;BME280;63554;48.940;12.050;2024-01-16T20:01:46;96554.53;;;-4.78;90.07
75008;BME280;63554;48.940;12.050;2024-01-16T20:05:52;96549.13;;;-4.86;91.19
75008;BME280;63554;48.940;12.050;2024-01-16T20:09:55;96541.66;;;-4.91;91.33
75008;BME280;63554;48.940;12.050;2024-01-16T20:13:59;96544.56;;;-4.94;91.23
75008;BME280;63554;48.940;12.050;2024-01-16T20:18:03;96536.13;;;-4.98;91.89
75008;BME280;63554;48.940;12.050;2024-01-16T20:22:11;96528.06;;;-5.06;91.43
75008;BME280;63554;48.940;12.050;2024-01-16T20:26:14;96511.59;;;-5.18;92.14
75008;BME280;63554;48.940;12.050;2024-01-16T20:30:17;96523.84;;;-5.26;93.16
75008;BME280;63554;48.940;12.050;2024-01-16T20:34:20;96520.25;;;-5.35;92.61
75008;BME280;63554;48.940;12.050;2024-01-16T20:38:24;96528.69;;;-5.41;92.52
75008;BME280;63554;48.940;12.050;2024-01-16T20:42:27;96534.97;;;-5.42;92.67
75008;BME280;63554;48.940;12.050;2024-01-16T20:46:31;96529.13;;;-5.46;92.60
75008;BME280;63554;48.940;12.050;2024-01-16T20:50:38;96525.81;;;-5.48;92.82
75008;BME280;63554;48.940;12.050;2024-01-16T20:54:43;96518.19;;;-5.61;92.82
75008;BME280;63554;48.940;12.050;2024-01-16T20:58:46;96519.72;;;-5.68;92.44
75008;BME280;63554;48.940;12.050;2024-01-16T21:02:49;96521.81;;;-5.81;92.23
75008;BME280;63554;48.940;12.050;2024-01-16T21:06:51;96512.94;;;-5.90;93.09
75008;BME280;63554;48.940;12.050;2024-01-16T21:11:01;96514.84;;;-5.92;93.57
75008;BME280;63554;48.940;12.050;2024-01-16T21:15:05;96499.63;;;-5.98;93.29
75008;BME280;63554;48.940;12.050;2024-01-16T21:19:08;96510.47;;;-6.01;93.49